sensor_id;sensor_type;location;lat;lon;timestamp;temperature;humidity
16116;DHT22;8162;47.104;15.432;2023-04-23T00:13:32;10.60;76.10
16116;DHT22;8162;47.104;15.432;2023-04-23T00:16:33;8.60;83.50
16116;DHT22;8162;47.104;15.432;2023-04-23T00:19:34;8.60;83.40
16116;DHT22;8162;47.104;15.432;2023-04-23T00:22:35;8.60;83.50
16116;DHT22;8162;47.104;15.432;2023-04-23T00:25:35;8.60;83.40
16116;DHT22;8162;47.104;15.432;2023-04-23T00:28:36;8.50;83.30
16116;DHT22;8162;47.104;15.432;2023-04-23T00:31:37;8.50;83.40
16116;DHT22;8162;47.104;15.432;2023-04-23T00:34:37;8.40;83.50
16116;DHT22;8162;47.104;15.432;2023-04-23T00:37:38;8.40;83.50
16116;DHT22;8162;47.104;15.432;2023-04-23T00:40:39;8.40;83.60
16116;DHT22;8162;47.104;15.432;2023-04-23T00:43:40;8.30;84.10
16116;DHT22;8162;47.104;15.432;2023-04-23T00:46:41;8.30;84.50
16116;DHT22;8162;47.104;15.432;2023-04-23T00:49:42;8.30;84.50
16116;DHT22;8162;47.104;15.432;2023-04-23T00:52:43;8.30;84.20
16116;DHT22;8162;47.104;15.432;2023-04-23T00:55:43;8.20;84.30
16116;DHT22;8162;47.104;15.432;2023-04-23T00:58:44;8.20;84.70
16116;DHT22;8162;47.104;15.432;2023-04-23T01:01:46;8.10;84.90
16116;DHT22;8162;47.104;15.432;2023-04-23T01:04:47;8.10;84.90
16116;DHT22;8162;47.104;15.432;2023-04-23T01:07:50;8.10;84.90
16116;DHT22;8162;47.104;15.432;2023-04-23T01:10:51;8.00;85.10
16116;DHT22;8162;47.104;15.432;2023-04-23T01:13:52;8.00;85.20
16116;DHT22;8162;47.104;15.432;2023-04-23T01:16:53;8.00;85.40
16116;DHT22;8162;47.104;15.432;2023-04-23T01:19:54;8.00;85.30
16116;DHT22;8162;47.104;15.432;2023-04-23T01:22:55;8.00;85.30
16116;DHT22;8162;47.104;15.432;2023-04-23T01:25:56;8.00;85.30
16116;DHT22;8162;47.104;15.432;2023-04-23T01:28:58;8.00;85.30
16116;DHT22;8162;47.104;15.432;2023-04-23T01:31:59;8.00;85.20
16116;DHT22;8162;47.104;15.432;2023-04-23T01:35:00;7.90;85.40
16116;DHT22;8162;47.104;15.432;2023-04-23T01:38:06;7.90;85.40
16116;DHT22;8162;47.104;15.432;2023-04-23T01:41:08;7.90;85.80
16116;DHT22;8162;47.104;15.432;2023-04-23T01:44:10;7.90;85.60
16116;DHT22;8162;47.104;15.432;2023-04-23T01:47:10;7.80;85.50
16116;DHT22;8162;47.104;15.432;2023-04-23T01:50:11;7.80;85.50
16116;DHT22;8162;47.104;15.432;2023-04-23T01:53:12;7.80;85.60
16116;DHT22;8162;47.104;15.432;2023-04-23T01:56:15;7.80;85.70
16116;DHT22;8162;47.104;15.432;2023-04-23T01:59:15;7.70;85.90
16116;DHT22;8162;47.104;15.432;2023-04-23T02:02:16;7.70;86.00
16116;DHT22;8162;47.104;15.432;2023-04-23T02:05:18;7.60;85.80
16116;DHT22;8162;47.104;15.432;2023-04-23T02:08:19;7.60;86.00
16116;DHT22;8162;47.104;15.432;2023-04-23T02:11:20;7.50;85.90
16116;DHT22;8162;47.104;15.432;2023-04-23T02:14:20;7.50;86.10
16116;DHT22;8162;47.104;15.432;2023-04-23T08:44:24;7.50;86.60
16116;DHT22;8162;47.104;15.432;2023-04-23T08:47:29;16.00;58.50
16116;DHT22;8162;47.104;15.432;2023-04-23T08:50:29;16.00;59.00
16116;DHT22;8162;47.104;15.432;2023-04-23T08:53:30;16.00;58.10
16116;DHT22;8162;47.104;15.432;2023-04-23T08:56:32;16.10;58.70
16116;DHT22;8162;47.104;15.432;2023-04-23T08:59:33;16.10;58.60
16116;DHT22;8162;47.104;15.432;2023-04-23T09:02:35;16.20;58.10
16116;DHT22;8162;47.104;15.432;2023-04-23T09:05:36;16.20;58.20
16116;DHT22;8162;47.104;15.432;2023-04-23T09:08:37;16.40;57.80
16116;DHT22;8162;47.104;15.432;2023-04-23T09:11:38;16.50;58.80
16116;DHT22;8162;47.104;15.432;2023-04-23T09:14:39;16.70;59.20
16116;DHT22;8162;47.104;15.432;2023-04-23T09:17:41;16.90;58.80
16116;DHT22;8162;47.104;15.432;2023-04-23T09:20:43;17.20;59.50
16116;DHT22;8162;47.104;15.432;2023-04-23T09:23:44;17.60;56.60
16116;DHT22;8162;47.104;15.432;2023-04-23T11:20:21;18.50;54.80
16116;DHT22;8162;47.104;15.432;2023-04-23T11:23:29;22.50;39.40
16116;DHT22;8162;47.104;15.432;2023-04-23T11:26:33;22.90;40.70
16116;DHT22;8162;47.104;15.432;2023-04-23T11:29:37;23.20;38.20
16116;DHT22;8162;47.104;15.432;2023-04-23T11:32:39;23.40;40.00
16116;DHT22;8162;47.104;15.432;2023-04-23T11:35:43;23.50;38.90
16116;DHT22;8162;47.104;15.432;2023-04-23T11:38:44;23.60;38.70
16116;DHT22;8162;47.104;15.432;2023-04-23T11:41:45;23.80;39.30
16116;DHT22;8162;47.104;15.432;2023-04-23T11:44:46;23.90;40.30
16116;DHT22;8162;47.104;15.432;2023-04-23T11:47:52;24.00;42.70
16116;DHT22;8162;47.104;15.432;2023-04-23T11:50:56;24.00;46.30
16116;DHT22;8162;47.104;15.432;2023-04-23T11:54:03;24.20;44.90
16116;DHT22;8162;47.104;15.432;2023-04-23T11:57:04;24.40;45.50
16116;DHT22;8162;47.104;15.432;2023-04-23T12:00:22;24.40;44.60
16116;DHT22;8162;47.104;15.432;2023-04-23T12:03:24;24.40;41.50
16116;DHT22;8162;47.104;15.432;2023-04-23T12:06:26;24.50;43.70
16116;DHT22;8162;47.104;15.432;2023-04-23T12:09:28;24.80;43.00
16116;DHT22;8162;47.104;15.432;2023-04-23T12:12:33;24.80;41.80
16116;DHT22;8162;47.104;15.432;2023-04-23T12:15:46;25.00;42.80
16116;DHT22;8162;47.104;15.432;2023-04-23T12:18:52;25.00;43.90
16116;DHT22;8162;47.104;15.432;2023-04-23T12:21:59;25.20;46.40
16116;DHT22;8162;47.104;15.432;2023-04-23T12:25:04;25.40;44.60
16116;DHT22;8162;47.104;15.432;2023-04-23T12:28:07;26.00;39.00
16116;DHT22;8162;47.104;15.432;2023-04-23T12:31:08;26.20;39.90
16116;DHT22;8162;47.104;15.432;2023-04-23T12:34:09;26.30;39.70
16116;DHT22;8162;47.104;15.432;2023-04-23T12:37:10;26.40;39.10
16116;DHT22;8162;47.104;15.432;2023-04-23T12:40:10;26.90;40.50
16116;DHT22;8162;47.104;15.432;2023-04-23T12:43:11;27.20;39.40
16116;DHT22;8162;47.104;15.432;2023-04-23T12:46:12;27.50;38.80
16116;DHT22;8162;47.104;15.432;2023-04-23T12:49:12;27.80;35.40
16116;DHT22;8162;47.104;15.432;2023-04-23T12:52:13;27.30;36.50
16116;DHT22;8162;47.104;15.432;2023-04-23T12:55:14;27.20;36.70
16116;DHT22;8162;47.104;15.432;2023-04-23T12:58:14;27.70;37.80
16116;DHT22;8162;47.104;15.432;2023-04-23T13:01:15;27.90;35.80
16116;DHT22;8162;47.104;15.432;2023-04-23T13:04:16;27.20;35.70
16116;DHT22;8162;47.104;15.432;2023-04-23T13:07:16;27.30;37.00
16116;DHT22;8162;47.104;15.432;2023-04-23T13:10:17;27.50;34.50
16116;DHT22;8162;47.104;15.432;2023-04-23T13:13:18;27.40;35.40
16116;DHT22;8162;47.104;15.432;2023-04-23T13:16:18;27.50;37.50
16116;DHT22;8162;47.104;15.432;2023-04-23T13:19:19;28.50;33.10
16116;DHT22;8162;47.104;15.432;2023-04-23T13:22:21;28.60;34.30
16116;DHT22;8162;47.104;15.432;2023-04-23T13:25:22;29.30;34.20
16116;DHT22;8162;47.104;15.432;2023-04-23T13:28:22;29.10;31.60
16116;DHT22;8162;47.104;15.432;2023-04-23T13:31:23;28.90;34.20
16116;DHT22;8162;47.104;15.432;2023-04-23T13:34:25;28.00;33.60
16116;DHT22;8162;47.104;15.432;2023-04-23T13:37:25;27.20;35.20
16116;DHT22;8162;47.104;15.432;2023-04-23T13:40:27;27.70;35.50
16116;DHT22;8162;47.104;15.432;2023-04-23T13:43:27;28.10;36.00
16116;DHT22;8162;47.104;15.432;2023-04-23T13:46:28;27.90;34.80
16116;DHT22;8162;47.104;15.432;2023-04-23T13:49:29;27.50;35.00
16116;DHT22;8162;47.104;15.432;2023-04-23T13:52:30;26.80;38.70
16116;DHT22;8162;47.104;15.432;2023-04-23T13:55:31;26.90;37.90
16116;DHT22;8162;47.104;15.432;2023-04-23T13:58:32;26.90;37.10
16116;DHT22;8162;47.104;15.432;2023-04-23T14:01:32;27.00;35.70
16116;DHT22;8162;47.104;15.432;2023-04-23T14:04:33;27.00;36.00
16116;DHT22;8162;47.104;15.432;2023-04-23T14:07:34;26.50;36.20
16116;DHT22;8162;47.104;15.432;2023-04-23T14:10:35;26.00;37.70
16116;DHT22;8162;47.104;15.432;2023-04-23T14:13:36;25.60;37.20
16116;DHT22;8162;47.104;15.432;2023-04-23T14:16:37;25.30;41.90
16116;DHT22;8162;47.104;15.432;2023-04-23T14:19:37;24.70;38.90
16116;DHT22;8162;47.104;15.432;2023-04-23T14:22:38;24.50;40.00
16116;DHT22;8162;47.104;15.432;2023-04-23T14:25:40;24.90;40.10
16116;DHT22;8162;47.104;15.432;2023-04-23T14:28:45;25.20;39.50
16116;DHT22;8162;47.104;15.432;2023-04-23T14:31:46;25.40;39.20
16116;DHT22;8162;47.104;15.432;2023-04-23T14:34:46;25.40;39.30
16116;DHT22;8162;47.104;15.432;2023-04-23T14:37:47;26.00;38.80
16116;DHT22;8162;47.104;15.432;2023-04-23T14:40:48;26.10;39.90
16116;DHT22;8162;47.104;15.432;2023-04-23T14:43:48;26.00;41.50
16116;DHT22;8162;47.104;15.432;2023-04-23T14:46:49;26.10;41.20
16116;DHT22;8162;47.104;15.432;2023-04-23T14:49:50;26.30;39.30
16116;DHT22;8162;47.104;15.432;2023-04-23T14:52:51;25.80;43.20
16116;DHT22;8162;47.104;15.432;2023-04-23T14:55:51;25.50;40.80
16116;DHT22;8162;47.104;15.432;2023-04-23T14:58:52;25.10;42.20
16116;DHT22;8162;47.104;15.432;2023-04-23T15:01:53;24.70;41.20
16116;DHT22;8162;47.104;15.432;2023-04-23T15:04:54;24.20;44.50
16116;DHT22;8162;47.104;15.432;2023-04-23T15:07:54;23.70;44.20
16116;DHT22;8162;47.104;15.432;2023-04-23T15:10:55;23.30;44.70
16116;DHT22;8162;47.104;15.432;2023-04-23T15:14:19;22.90;46.00
16116;DHT22;8162;47.104;15.432;2023-04-23T15:17:21;22.50;47.30
16116;DHT22;8162;47.104;15.432;2023-04-23T15:20:22;22.10;47.70
16116;DHT22;8162;47.104;15.432;2023-04-23T15:23:23;21.90;47.40
16116;DHT22;8162;47.104;15.432;2023-04-23T15:26:24;21.60;48.10
16116;DHT22;8162;47.104;15.432;2023-04-23T15:29:25;21.40;48.90
16116;DHT22;8162;47.104;15.432;2023-04-23T15:32:26;21.10;50.10
16116;DHT22;8162;47.104;15.432;2023-04-23T15:35:27;20.90;50.50
16116;DHT22;8162;47.104;15.432;2023-04-23T15:38:28;20.70;51.10
16116;DHT22;8162;47.104;15.432;2023-04-23T15:41:28;20.50;51.80
16116;DHT22;8162;47.104;15.432;2023-04-23T15:44:29;20.40;51.60
16116;DHT22;8162;47.104;15.432;2023-04-23T15:47:30;20.30;51.90
16116;DHT22;8162;47.104;15.432;2023-04-23T15:50:30;20.10;51.90
16116;DHT22;8162;47.104;15.432;2023-04-23T15:53:31;19.90;52.40
16116;DHT22;8162;47.104;15.432;2023-04-23T15:56:32;19.70;54.00
16116;DHT22;8162;47.104;15.432;2023-04-23T15:59:33;19.50;53.80
16116;DHT22;8162;47.104;15.432;2023-04-23T16:02:34;19.50;53.80
16116;DHT22;8162;47.104;15.432;2023-04-23T16:05:34;19.40;55.00
16116;DHT22;8162;47.104;15.432;2023-04-23T16:08:35;19.20;55.80
16116;DHT22;8162;47.104;15.432;2023-04-23T16:11:37;19.10;54.60
16116;DHT22;8162;47.104;15.432;2023-04-23T16:14:37;19.10;55.50
16116;DHT22;8162;47.104;15.432;2023-04-23T16:17:39;19.00;55.00
16116;DHT22;8162;47.104;15.432;2023-04-23T16:20:40;19.00;54.50
16116;DHT22;8162;47.104;15.432;2023-04-23T16:23:41;19.00;55.20
16116;DHT22;8162;47.104;15.432;2023-04-23T16:26:42;18.80;58.00
16116;DHT22;8162;47.104;15.432;2023-04-23T16:29:42;18.60;60.20
16116;DHT22;8162;47.104;15.432;2023-04-23T16:32:43;18.30;61.40
16116;DHT22;8162;47.104;15.432;2023-04-23T16:35:44;18.10;61.30
16116;DHT22;8162;47.104;15.432;2023-04-23T16:38:45;18.00;61.20
16116;DHT22;8162;47.104;15.432;2023-04-23T16:41:48;17.80;63.00
16116;DHT22;8162;47.104;15.432;2023-04-23T16:44:48;17.80;63.10
16116;DHT22;8162;47.104;15.432;2023-04-23T16:47:49;17.70;62.70
16116;DHT22;8162;47.104;15.432;2023-04-23T16:50:51;17.60;62.70
16116;DHT22;8162;47.104;15.432;2023-04-23T16:53:52;17.50;62.20
16116;DHT22;8162;47.104;15.432;2023-04-23T16:56:53;17.30;64.90
16116;DHT22;8162;47.104;15.432;2023-04-23T16:59:54;16.40;80.00
16116;DHT22;8162;47.104;15.432;2023-04-23T17:15:11;11.60;99.90
16116;DHT22;8162;47.104;15.432;2023-04-23T17:18:12;11.90;99.90
